Time;durP1;ratioP1;P1;durP2;ratioP2;P2;SDS_P1;SDS_P2;PMS_P1;PMS_P2;Temp;Humidity;BMP_temperature;BMP_pressure;BME280_temperature;BME280_humidity;BME280_pressure;Samples;Min_cycle;Max_cycle;Signal;HPM_P1;HPM_P2
2023/04/30 00:01:27;;;;;;;;;;;;;;;14.23;100.00;98134.69;4939894;28;19930;-76
2023/04/30 00:03:53;;;;;;;;;;;;;;;14.00;100.00;98128.13;4929921;28;20087;-73
2023/04/30 00:06:20;;;;;;;;;;;;;;;14.06;100.00;98130.50;4913361;28;19940;-76
2023/04/30 00:08:46;;;;;;;;;;;;;;;14.24;100.00;98134.41;4926205;28;19936;-75
2023/04/30 00:11:12;;;;;;;;;;;;;;;14.11;100.00;98128.88;4921581;28;19933;-75
2023/04/30 00:13:41;;;;;;;;;;;;;;;14.23;100.00;98137.38;4928076;28;19933;-75
2023/04/30 00:16:08;;;;;;;;;;;;;;;14.13;100.00;98129.38;4935910;28;20115;-76
2023/04/30 00:18:34;;;;;;;;;;;;;;;13.98;100.00;98133.81;4932801;28;20498;-76
2023/04/30 00:21:00;;;;;;;;;;;;;;;14.10;100.00;98144.19;4922295;28;19929;-74
2023/04/30 00:23:27;;;;;;;;;;;;;;;14.02;100.00;98132.13;4932104;28;20024;-77
2023/04/30 00:25:53;;;;;;;;;;;;;;;13.99;100.00;98142.63;4928327;28;20028;-76
2023/04/30 00:28:20;;;;;;;;;;;;;;;14.17;100.00;98142.00;4931443;28;19936;-75
2023/04/30 00:30:47;;;;;;;;;;;;;;;14.19;100.00;98136.31;4938373;28;19932;-76
2023/04/30 00:33:14;;;;;;;;;;;;;;;14.31;100.00;98144.81;4932234;28;20020;-75
2023/04/30 00:35:40;;;;;;;;;;;;;;;14.52;100.00;98146.28;4931323;28;19961;-75
2023/04/30 00:38:06;;;;;;;;;;;;;;;14.61;100.00;98135.75;4940657;28;19930;-75
2023/04/30 00:40:34;;;;;;;;;;;;;;;14.38;100.00;98142.66;4930260;28;19933;-76
2023/04/30 00:43:00;;;;;;;;;;;;;;;14.23;100.00;98142.75;4927677;28;20036;-75
2023/04/30 00:45:26;;;;;;;;;;;;;;;14.15;100.00;98141.44;4930305;28;20465;-76
2023/04/30 00:47:54;;;;;;;;;;;;;;;14.25;100.00;98141.38;4931272;28;19929;-76
2023/04/30 00:50:21;;;;;;;;;;;;;;;14.41;100.00;98153.66;4931293;28;19930;-76
2023/04/30 00:52:47;;;;;;;;;;;;;;;14.34;100.00;98147.78;4931410;28;19930;-75
2023/04/30 00:55:14;;;;;;;;;;;;;;;14.22;100.00;98141.94;4925798;28;19930;-76
2023/04/30 00:57:40;;;;;;;;;;;;;;;14.04;100.00;98150.69;4929676;28;19929;-75
2023/04/30 01:00:09;;;;;;;;;;;;;;;13.89;100.00;98142.72;4929012;28;20727;-76
2023/04/30 01:02:36;;;;;;;;;;;;;;;13.89;100.00;98148.09;4924113;28;19973;-75
2023/04/30 01:05:04;;;;;;;;;;;;;;;13.89;100.00;98143.53;4932551;28;20886;-75
2023/04/30 01:07:31;;;;;;;;;;;;;;;14.03;100.00;98154.44;4936647;28;19935;-78
2023/04/30 01:09:57;;;;;;;;;;;;;;;14.24;100.00;98150.50;4951743;28;19941;-75
2023/04/30 01:12:29;;;;;;;;;;;;;;;14.30;100.00;98149.38;4937634;28;19929;-76
2023/04/30 01:14:59;;;;;;;;;;;;;;;14.31;100.00;98155.56;4935904;28;20492;-75
2023/04/30 01:17:31;;;;;;;;;;;;;;;14.33;100.00;98166.84;4940431;28;19929;-75
2023/04/30 01:19:58;;;;;;;;;;;;;;;14.24;100.00;98160.44;4925166;28;19939;-76
2023/04/30 01:22:31;;;;;;;;;;;;;;;14.46;100.00;98169.72;4938846;28;20048;-76
2023/04/30 01:25:06;;;;;;;;;;;;;;;14.59;100.00;98168.28;4930839;28;19936;-75
2023/04/30 01:27:41;;;;;;;;;;;;;;;14.59;100.00;98168.28;4912270;28;19937;-76
2023/04/30 01:30:10;;;;;;;;;;;;;;;14.71;100.00;98166.00;4917681;28;20015;-76
2023/04/30 01:32:36;;;;;;;;;;;;;;;14.48;100.00;98170.22;4928301;28;19929;-76
2023/04/30 01:35:03;;;;;;;;;;;;;;;14.41;100.00;98171.66;4937120;28;19933;-76
2023/04/30 01:37:31;;;;;;;;;;;;;;;14.23;100.00;98170.41;4934050;28;20046;-76
2023/04/30 01:40:06;;;;;;;;;;;;;;;14.42;100.00;98173.25;4910269;28;20012;-75
2023/04/30 01:42:36;;;;;;;;;;;;;;;14.51;100.00;98169.66;4930952;28;19930;-76
2023/04/30 01:45:15;;;;;;;;;;;;;;;14.20;100.00;98170.19;4908326;28;19944;-76
2023/04/30 01:47:46;;;;;;;;;;;;;;;13.98;100.00;98170.59;4919630;28;19940;-75
2023/04/30 01:50:17;;;;;;;;;;;;;;;13.81;100.00;98172.81;4921395;28;19940;-75
2023/04/30 01:52:46;;;;;;;;;;;;;;;13.86;100.00;98173.63;4921793;28;19929;-76
2023/04/30 01:55:15;;;;;;;;;;;;;;;13.91;100.00;98184.31;4917328;28;20352;-75
2023/04/30 01:57:43;;;;;;;;;;;;;;;13.70;100.00;98184.69;4923451;28;20039;-76
2023/04/30 02:00:10;;;;;;;;;;;;;;;13.59;100.00;98183.13;4935167;28;20835;-75
2023/04/30 02:02:37;;;;;;;;;;;;;;;13.46;100.00;98179.19;4922708;28;19929;-76
2023/04/30 02:05:05;;;;;;;;;;;;;;;13.69;100.00;98181.22;4925117;28;20068;-75
2023/04/30 02:07:37;;;;;;;;;;;;;;;13.91;100.00;98189.69;4924641;28;20662;-75
2023/04/30 02:10:04;;;;;;;;;;;;;;;14.16;100.00;98179.88;4924376;28;20830;-76
2023/04/30 02:12:30;;;;;;;;;;;;;;;14.29;100.00;98189.97;4926698;28;19930;-75
2023/04/30 02:14:57;;;;;;;;;;;;;;;14.22;100.00;98189.50;4928819;28;19940;-76
2023/04/30 02:17:23;;;;;;;;;;;;;;;14.03;100.00;98187.47;4926800;28;19934;-76
2023/04/30 02:19:49;;;;;;;;;;;;;;;13.91;100.00;98189.69;4911026;28;20222;-76
2023/04/30 02:22:17;;;;;;;;;;;;;;;13.83;100.00;98189.47;4923068;28;19935;-76
2023/04/30 02:24:43;;;;;;;;;;;;;;;13.69;100.00;98181.22;4915740;28;20077;-76
2023/04/30 02:27:10;;;;;;;;;;;;;;;13.63;100.00;98190.38;4922990;28;19929;-75
2023/04/30 02:29:36;;;;;;;;;;;;;;;13.42;100.00;98196.91;4922696;28;19929;-77
2023/04/30 02:32:03;;;;;;;;;;;;;;;13.61;100.00;98197.09;4935266;28;19934;-75
2023/04/30 02:34:29;;;;;;;;;;;;;;;13.68;100.00;98195.69;4923727;28;19929;-76
2023/04/30 02:36:55;;;;;;;;;;;;;;;13.63;100.00;98193.06;4925811;28;19997;-75
2023/04/30 02:39:23;;;;;;;;;;;;;;;13.68;100.00;98194.94;4924279;28;19936;-75
2023/04/30 02:41:49;;;;;;;;;;;;;;;13.58;100.00;98192.28;4923329;28;19936;-76
2023/04/30 02:44:16;;;;;;;;;;;;;;;13.58;100.00;98203.00;4917702;28;20789;-73
2023/04/30 02:46:43;;;;;;;;;;;;;;;13.65;100.00;98195.47;4921518;28;19929;-76
2023/04/30 02:49:09;;;;;;;;;;;;;;;13.82;100.00;98193.22;4941295;28;19929;-76
2023/04/30 02:51:35;;;;;;;;;;;;;;;13.82;100.00;98191.34;4920021;28;19929;-76
2023/04/30 02:54:02;;;;;;;;;;;;;;;13.73;100.00;98186.84;4921008;28;20461;-76
2023/04/30 02:56:29;;;;;;;;;;;;;;;13.75;100.00;98188.16;4923841;28;19933;-74
2023/04/30 02:58:56;;;;;;;;;;;;;;;13.74;100.00;98186.53;4913317;28;19964;-76
2023/04/30 03:01:22;;;;;;;;;;;;;;;13.69;100.00;98189.25;4906205;28;19968;-76
2023/04/30 03:03:49;;;;;;;;;;;;;;;13.72;100.00;98196.75;4902783;28;20130;-77
2023/04/30 03:06:15;;;;;;;;;;;;;;;13.65;100.00;98204.31;4915273;28;19941;-75
2023/04/30 03:08:41;;;;;;;;;;;;;;;13.73;100.00;98203.75;4928166;28;20854;-76
2023/04/30 03:11:08;;;;;;;;;;;;;;;13.79;100.00;98194.59;4912266;28;20400;-76
2023/04/30 03:13:35;;;;;;;;;;;;;;;13.69;100.00;98208.06;4914071;28;20911;-75
2023/04/30 03:16:03;;;;;;;;;;;;;;;13.49;100.00;98208.94;4910407;28;19933;-76
2023/04/30 03:18:30;;;;;;;;;;;;;;;13.00;100.00;98206.09;4895052;28;20240;-76
2023/04/30 03:20:56;;;;;;;;;;;;;;;12.99;100.00;98209.88;4911180;28;19936;-75
2023/04/30 03:23:22;;;;;;;;;;;;;;;13.03;100.00;98209.31;4912752;28;19940;-75
2023/04/30 03:25:50;;;;;;;;;;;;;;;12.97;100.00;98212.00;4921247;28;19935;-76
2023/04/30 03:28:16;;;;;;;;;;;;;;;12.91;100.00;98210.41;4924299;28;19930;-74
2023/04/30 03:30:44;;;;;;;;;;;;;;;12.78;100.00;98208.25;4924090;28;19929;-75
2023/04/30 03:33:10;;;;;;;;;;;;;;;12.85;100.00;98208.78;4922887;28;19989;-75
2023/04/30 03:35:37;;;;;;;;;;;;;;;13.24;100.00;98210.91;4917373;28;19930;-75
2023/04/30 03:38:03;;;;;;;;;;;;;;;13.09;100.00;98213.63;4920082;28;19929;-75
2023/04/30 03:40:30;;;;;;;;;;;;;;;13.02;100.00;98211.19;4942279;28;19996;-75
2023/04/30 03:42:56;;;;;;;;;;;;;;;13.19;100.00;98205.53;4919899;28;20043;-75
2023/04/30 03:45:22;;;;;;;;;;;;;;;13.69;100.00;98202.69;4928007;28;20032;-74
2023/04/30 03:47:51;;;;;;;;;;;;;;;13.97;100.00;98212.75;4923911;28;19929;-77
2023/04/30 03:50:18;;;;;;;;;;;;;;;13.81;100.00;98211.22;4931802;28;19929;-76
2023/04/30 03:52:44;;;;;;;;;;;;;;;13.98;100.00;98203.63;4917375;28;19929;-76
2023/04/30 03:55:11;;;;;;;;;;;;;;;14.01;100.00;98211.13;4927912;28;19930;-76
2023/04/30 03:57:39;;;;;;;;;;;;;;;14.19;100.00;98206.16;4927065;28;19936;-75
2023/04/30 04:00:06;;;;;;;;;;;;;;;14.32;100.00;98198.28;4923212;28;19969;-76
2023/04/30 04:02:33;;;;;;;;;;;;;;;14.33;100.00;98201.78;4934996;28;19930;-75
2023/04/30 04:05:00;;;;;;;;;;;;;;;14.39;100.00;98206.84;4929079;28;20036;-75
2023/04/30 04:07:27;;;;;;;;;;;;;;;14.36;100.00;98203.94;4923440;28;19936;-76
2023/04/30 04:09:53;;;;;;;;;;;;;;;14.38;100.00;98207.16;4925784;28;19929;-75
2023/04/30 04:12:19;;;;;;;;;;;;;;;14.25;100.00;98202.38;4919873;28;19929;-76
2023/04/30 04:14:46;;;;;;;;;;;;;;;13.95;100.00;98201.50;4938616;28;19936;-74
2023/04/30 04:17:12;;;;;;;;;;;;;;;13.81;100.00;98211.22;4931525;28;20547;-76
2023/04/30 04:19:39;;;;;;;;;;;;;;;13.41;100.00;98216.75;4930141;28;19929;-77
2023/04/30 04:22:07;;;;;;;;;;;;;;;12.84;100.00;98207.19;4922122;28;19929;-75
2023/04/30 04:24:34;;;;;;;;;;;;;;;12.93;100.00;98215.50;4919218;28;19929;-77
2023/04/30 04:27:02;;;;;;;;;;;;;;;13.03;100.00;98214.69;4926566;28;20031;-76
2023/04/30 04:29:29;;;;;;;;;;;;;;;12.87;100.00;98220.03;4919472;28;20670;-76
2023/04/30 04:31:55;;;;;;;;;;;;;;;12.89;100.00;98223.28;4918132;28;19930;-75
2023/04/30 04:34:22;;;;;;;;;;;;;;;12.71;100.00;98229.19;4918371;28;20083;-75
2023/04/30 04:36:48;;;;;;;;;;;;;;;12.59;100.00;98225.97;4918270;28;19929;-74
2023/04/30 04:39:16;;;;;;;;;;;;;;;12.77;100.00;98228.13;4915411;28;20532;-75
2023/04/30 04:41:43;;;;;;;;;;;;;;;13.48;100.00;98230.69;4913767;28;19940;-75
2023/04/30 04:44:09;;;;;;;;;;;;;;;13.75;100.00;98232.97;4916276;28;19929;-75
2023/04/30 04:46:37;;;;;;;;;;;;;;;13.92;100.00;98245.00;4930869;28;19930;-76
2023/04/30 04:49:03;;;;;;;;;;;;;;;14.06;100.00;98240.63;4934384;28;19940;-76
2023/04/30 04:51:31;;;;;;;;;;;;;;;13.93;100.00;98235.84;4925269;28;20700;-74
2023/04/30 04:53:57;;;;;;;;;;;;;;;14.04;100.00;98239.28;4924776;28;19929;-76
2023/04/30 04:56:25;;;;;;;;;;;;;;;14.15;100.00;98238.16;4915713;28;20052;-76
2023/04/30 04:58:51;;;;;;;;;;;;;;;14.27;100.00;98229.75;4912406;28;19936;-75
2023/04/30 05:01:18;;;;;;;;;;;;;;;14.30;100.00;98234.56;4919048;28;19937;-75
2023/04/30 05:03:44;;;;;;;;;;;;;;;14.41;100.00;98238.81;4921822;28;20555;-75
2023/04/30 05:06:10;;;;;;;;;;;;;;;14.51;100.00;98239.53;4923951;28;19930;-76
2023/04/30 05:08:37;;;;;;;;;;;;;;;14.57;100.00;98235.75;4921180;28;19929;-76
2023/04/30 05:11:03;;;;;;;;;;;;;;;14.63;100.00;98239.22;4925695;28;20926;-76
2023/04/30 05:13:31;;;;;;;;;;;;;;;14.59;100.00;98241.66;4922942;28;19929;-76
2023/04/30 05:15:57;;;;;;;;;;;;;;;13.89;100.00;98245.56;4935807;28;19929;-76
2023/04/30 05:18:24;;;;;;;;;;;;;;;14.51;100.00;98242.22;4928953;28;19929;-76
2023/04/30 05:20:50;;;;;;;;;;;;;;;14.64;100.00;98248.06;4928873;28;19938;-76
2023/04/30 05:23:16;;;;;;;;;;;;;;;14.40;100.00;98239.91;4946154;28;19929;-75
2023/04/30 05:25:43;;;;;;;;;;;;;;;14.46;100.00;98244.16;4933118;28;19929;-76
2023/04/30 05:28:09;;;;;;;;;;;;;;;14.44;100.00;98255.19;4932700;28;20665;-75
2023/04/30 05:30:37;;;;;;;;;;;;;;;14.58;100.00;98249.97;4922704;28;20395;-75
2023/04/30 05:33:03;;;;;;;;;;;;;;;14.61;100.00;98251.31;4924145;28;20738;-76
2023/04/30 05:35:30;;;;;;;;;;;;;;;14.70;100.00;98255.78;4929258;28;19936;-75
2023/04/30 05:37:56;;;;;;;;;;;;;;;14.42;100.00;98251.19;4928926;28;19936;-76
2023/04/30 05:40:23;;;;;;;;;;;;;;;14.41;100.00;98252.25;4928664;28;19930;-76
2023/04/30 05:42:49;;;;;;;;;;;;;;;14.49;100.00;98255.16;4921006;28;20347;-76
2023/04/30 05:45:16;;;;;;;;;;;;;;;14.43;100.00;98256.28;4942124;28;19933;-77
2023/04/30 05:47:43;;;;;;;;;;;;;;;14.50;100.00;98261.34;4927589;28;19938;-75
2023/04/30 05:50:10;;;;;;;;;;;;;;;14.48;100.00;98253.53;4928450;28;19939;-75
2023/04/30 05:52:36;;;;;;;;;;;;;;;14.77;100.00;98263.53;4924799;28;20237;-76
2023/04/30 05:55:03;;;;;;;;;;;;;;;14.71;100.00;98262.78;4924168;28;19930;-76
2023/04/30 05:57:29;;;;;;;;;;;;;;;14.92;100.00;98264.22;4923550;28;20799;-74
2023/04/30 05:59:56;;;;;;;;;;;;;;;14.95;100.00;98260.97;4913858;28;20055;-75
2023/04/30 06:02:22;;;;;;;;;;;;;;;15.04;100.00;98267.34;4922202;28;19936;-76
2023/04/30 06:04:50;;;;;;;;;;;;;;;15.08;100.00;98268.38;4919295;28;20036;-75
2023/04/30 06:07:16;;;;;;;;;;;;;;;15.10;100.00;98274.28;4910695;28;19945;-76
2023/04/30 06:09:43;;;;;;;;;;;;;;;14.99;100.00;98270.09;4902646;28;20362;-77
2023/04/30 06:12:10;;;;;;;;;;;;;;;14.76;100.00;98265.41;4896976;28;20397;-74
2023/04/30 06:14:36;;;;;;;;;;;;;;;14.76;100.00;98262.72;4912326;28;19941;-75
2023/04/30 06:17:03;;;;;;;;;;;;;;;14.63;100.00;98260.72;4925515;28;19930;-76
2023/04/30 06:19:29;;;;;;;;;;;;;;;14.55;100.00;98258.59;4923619;28;20392;-76
2023/04/30 06:21:57;;;;;;;;;;;;;;;14.33;100.00;98259.00;4921824;28;20966;-75
2023/04/30 06:24:26;;;;;;;;;;;;;;;14.42;100.00;98261.94;4915440;28;19937;-76
2023/04/30 06:26:52;;;;;;;;;;;;;;;14.41;100.00;98265.69;4916281;28;19930;-76
2023/04/30 06:29:18;;;;;;;;;;;;;;;14.38;100.00;98269.75;4938829;28;20903;-76
2023/04/30 06:31:45;;;;;;;;;;;;;;;14.43;100.00;98269.69;4922250;28;20468;-75
2023/04/30 06:34:11;;;;;;;;;;;;;;;14.29;100.00;98259.84;4922737;28;19937;-76
2023/04/30 06:36:38;;;;;;;;;;;;;;;14.43;100.00;98268.91;4926868;28;19930;-75
2023/04/30 06:39:05;;;;;;;;;;;;;;;14.70;100.00;98263.84;4941332;28;19960;-76
2023/04/30 06:41:32;;;;;;;;;;;;;;;14.99;100.00;98264.72;4928100;28;19930;-77
2023/04/30 06:43:58;;;;;;;;;;;;;;;15.17;100.00;98270.44;4925523;28;20403;-76
2023/04/30 06:46:25;;;;;;;;;;;;;;;15.52;100.00;98264.75;4917097;28;19976;-75
2023/04/30 06:48:51;;;;;;;;;;;;;;;15.57;100.00;98270.06;4922676;28;19935;-74
2023/04/30 06:51:17;;;;;;;;;;;;;;;15.43;100.00;98263.75;4924085;28;19940;-76
2023/04/30 06:53:44;;;;;;;;;;;;;;;15.46;100.00;98271.25;4926634;28;19964;-75
2023/04/30 06:56:12;;;;;;;;;;;;;;;15.40;100.00;98269.69;4928585;28;20643;-75
2023/04/30 06:58:38;;;;;;;;;;;;;;;15.28;100.00;98271.97;4927727;28;19988;-75
2023/04/30 07:01:05;;;;;;;;;;;;;;;15.27;100.00;98270.38;4924851;28;19930;-76
2023/04/30 07:03:32;;;;;;;;;;;;;;;15.26;100.00;98268.75;4915763;28;20885;-76
2023/04/30 07:05:58;;;;;;;;;;;;;;;15.55;100.00;98272.25;4925127;28;20488;-76
2023/04/30 07:08:25;;;;;;;;;;;;;;;15.60;100.00;98269.50;4919348;28;20015;-75
2023/04/30 07:10:51;;;;;;;;;;;;;;;15.56;100.00;98266.59;4917032;28;20038;-75
2023/04/30 07:13:19;;;;;;;;;;;;;;;15.34;100.00;98266.25;4919983;28;20396;-76
2023/04/30 07:15:46;;;;;;;;;;;;;;;15.19;100.00;98274.50;4923857;28;19930;-75
2023/04/30 07:18:12;;;;;;;;;;;;;;;15.16;100.00;98264.28;4921668;28;20023;-77
2023/04/30 07:20:39;;;;;;;;;;;;;;;15.10;100.00;98265.44;4927662;28;20015;-76
2023/04/30 07:23:05;;;;;;;;;;;;;;;15.29;100.00;98268.22;4917610;28;19951;-75
2023/04/30 07:25:31;;;;;;;;;;;;;;;15.40;100.00;98264.31;4922446;28;19929;-75
2023/04/30 07:27:58;;;;;;;;;;;;;;;15.42;100.00;98262.13;4925225;28;20467;-74
2023/04/30 07:30:25;;;;;;;;;;;;;;;15.15;100.00;98268.06;4930156;28;20956;-75
2023/04/30 07:32:52;;;;;;;;;;;;;;;14.97;100.00;98255.31;4915487;28;19940;-75
2023/04/30 07:35:18;;;;;;;;;;;;;;;15.31;100.00;98264.16;4907453;28;20024;-75
2023/04/30 07:37:45;;;;;;;;;;;;;;;15.73;100.00;98263.44;4905609;28;20365;-76
2023/04/30 07:40:12;;;;;;;;;;;;;;;15.84;100.00;98266.81;4919602;28;20792;-76
2023/04/30 07:42:39;;;;;;;;;;;;;;;15.78;100.00;98263.38;4918924;28;20448;-76
2023/04/30 07:45:06;;;;;;;;;;;;;;;15.78;100.00;98260.69;4926483;28;19929;-76
2023/04/30 07:47:34;;;;;;;;;;;;;;;15.69;100.00;98262.38;4912953;28;20827;-76
2023/04/30 07:50:00;;;;;;;;;;;;;;;15.76;100.00;98260.16;4912927;28;20230;-75
2023/04/30 07:52:28;;;;;;;;;;;;;;;15.72;100.00;98261.03;4906627;28;20814;-76
2023/04/30 07:54:55;;;;;;;;;;;;;;;15.56;100.00;98268.50;4917869;28;20717;-75
2023/04/30 07:57:21;;;;;;;;;;;;;;;15.46;100.00;98271.25;4921879;28;20015;-77
2023/04/30 07:59:47;;;;;;;;;;;;;;;15.22;100.00;98273.13;4920562;28;19940;-76
2023/04/30 08:02:14;;;;;;;;;;;;;;;15.26;100.00;98276.81;4925828;28;19937;-76
2023/04/30 08:04:41;;;;;;;;;;;;;;;15.21;100.00;98272.31;4924310;28;20048;-75
2023/04/30 08:07:08;;;;;;;;;;;;;;;15.41;100.00;98276.69;4909843;28;20760;-77
2023/04/30 08:09:34;;;;;;;;;;;;;;;15.57;100.00;98281.66;4929640;28;20658;-77
2023/04/30 08:12:00;;;;;;;;;;;;;;;15.62;100.00;98288.88;4924952;28;19933;-76
2023/04/30 08:14:27;;;;;;;;;;;;;;;15.51;100.00;98279.28;4936643;28;20571;-76
2023/04/30 08:16:53;;;;;;;;;;;;;;;15.23;100.00;98280.88;4935948;28;19977;-76
2023/04/30 08:19:19;;;;;;;;;;;;;;;15.34;100.00;98287.78;4934943;28;19929;-76
2023/04/30 08:21:47;;;;;;;;;;;;;;;15.21;100.00;98282.25;4929164;28;19940;-76
2023/04/30 08:24:13;;;;;;;;;;;;;;;15.26;100.00;98280.31;4920339;28;20690;-76
2023/04/30 08:26:40;;;;;;;;;;;;;;;15.36;100.00;98279.41;4924507;28;19930;-76
2023/04/30 08:29:07;;;;;;;;;;;;;;;15.66;100.00;98289.88;4926374;28;19929;-76
2023/04/30 08:31:33;;;;;;;;;;;;;;;15.69;100.00;98283.94;4927655;28;20753;-75
2023/04/30 08:34:00;;;;;;;;;;;;;;;15.65;100.00;98274.84;4929640;28;19933;-75
2023/04/30 08:36:26;;;;;;;;;;;;;;;15.74;100.00;98286.59;4930444;28;19930;-76
2023/04/30 08:38:54;;;;;;;;;;;;;;;15.62;100.00;98272.72;4943408;28;19980;-77
2023/04/30 08:41:22;;;;;;;;;;;;;;;15.52;100.00;98273.63;4927656;28;19936;-76
2023/04/30 08:43:52;;;;;;;;;;;;;;;15.57;100.00;98280.84;4918470;28;20644;-76
2023/04/30 08:46:20;;;;;;;;;;;;;;;15.72;100.00;98277.97;4925758;28;20326;-76
2023/04/30 08:48:47;;;;;;;;;;;;;;;15.57;100.00;98278.16;4928112;28;19984;-76
2023/04/30 08:51:14;;;;;;;;;;;;;;;15.50;100.00;98280.41;4945238;28;19929;-73
2023/04/30 08:53:42;;;;;;;;;;;;;;;15.63;100.00;98279.69;4919837;28;19972;-77
2023/04/30 08:56:11;;;;;;;;;;;;;;;15.82;100.00;98282.44;4926948;28;19930;-75
2023/04/30 08:58:38;;;;;;;;;;;;;;;15.78;100.00;98282.25;4919594;28;19930;-76
2023/04/30 09:01:06;;;;;;;;;;;;;;;15.89;99.94;98267.53;4924256;28;20479;-77
2023/04/30 09:03:33;;;;;;;;;;;;;;;15.72;98.87;98283.34;4913894;28;20464;-76
2023/04/30 09:05:59;;;;;;;;;;;;;;;15.73;99.12;98286.84;4907542;28;19934;-76
2023/04/30 09:08:41;;;;;;;;;;;;;;;15.85;100.00;98288.06;4898235;28;19929;-75
2023/04/30 09:11:22;;;;;;;;;;;;;;;15.84;97.99;98283.78;4913956;28;19930;-75
2023/04/30 09:13:49;;;;;;;;;;;;;;;15.91;100.00;98281.53;4927309;28;19929;-75
2023/04/30 09:16:15;;;;;;;;;;;;;;;15.98;98.58;98281.97;4915296;28;20494;-76
2023/04/30 09:18:42;;;;;;;;;;;;;;;15.68;97.08;98276.97;4910526;28;19978;-75
2023/04/30 09:21:08;;;;;;;;;;;;;;;15.55;99.56;98278.44;4912900;28;20005;-76
2023/04/30 09:23:34;;;;;;;;;;;;;;;15.41;98.08;98274.78;4910435;28;19937;-76
2023/04/30 09:26:01;;;;;;;;;;;;;;;15.49;100.00;98278.78;4923108;28;19930;-75
2023/04/30 09:28:29;;;;;;;;;;;;;;;15.61;97.59;98269.22;4922231;28;20545;-75
2023/04/30 09:30:56;;;;;;;;;;;;;;;15.57;98.77;98270.06;4913287;28;20469;-76
2023/04/30 09:33:23;;;;;;;;;;;;;;;15.76;96.85;98270.13;4910717;28;20396;-75
2023/04/30 09:35:49;;;;;;;;;;;;;;;15.66;96.85;98274.53;4922604;28;19993;-74
2023/04/30 09:38:26;;;;;;;;;;;;;;;15.72;95.72;98272.59;4920239;28;20752;-75
2023/04/30 09:40:52;;;;;;;;;;;;;;;15.85;100.00;98271.91;4924181;28;20285;-75
2023/04/30 09:43:18;;;;;;;;;;;;;;;15.84;95.16;98264.94;4920790;28;19934;-75
2023/04/30 09:45:48;;;;;;;;;;;;;;;15.85;96.87;98271.91;4928067;28;20365;-73
2023/04/30 09:48:15;;;;;;;;;;;;;;;15.85;98.83;98271.91;4929024;28;19929;-76
2023/04/30 09:50:43;;;;;;;;;;;;;;;15.92;100.00;98261.59;4921492;28;20096;-76
2023/04/30 09:53:12;;;;;;;;;;;;;;;16.25;98.33;98272.50;4923607;28;20295;-74
2023/04/30 09:55:40;;;;;;;;;;;;;;;16.36;92.96;98265.84;4918499;28;19935;-74
2023/04/30 09:58:07;;;;;;;;;;;;;;;16.23;91.81;98263.88;4921228;28;20318;-77
2023/04/30 10:00:34;;;;;;;;;;;;;;;16.26;91.42;98271.38;4915658;28;20737;-75
2023/04/30 10:03:04;;;;;;;;;;;;;;;16.14;86.96;98261.03;4908421;28;20179;-74
2023/04/30 10:05:32;;;;;;;;;;;;;;;16.11;82.46;98257.03;4910603;28;20198;-77
2023/04/30 10:07:58;;;;;;;;;;;;;;;16.27;83.40;98264.91;4916262;28;20293;-75
2023/04/30 10:10:26;;;;;;;;;;;;;;;16.05;79.72;98257.38;4936292;28;19929;-75
2023/04/30 10:12:55;;;;;;;;;;;;;;;16.09;84.49;98253.03;4922149;28;20136;-74
2023/04/30 10:15:25;;;;;;;;;;;;;;;16.07;83.27;98257.88;4917866;28;20040;-75
2023/04/30 10:17:56;;;;;;;;;;;;;;;16.14;84.38;98253.75;4913127;28;20239;-75
2023/04/30 10:20:26;;;;;;;;;;;;;;;16.24;84.91;98257.41;4923929;28;20353;-76
2023/04/30 10:22:53;;;;;;;;;;;;;;;16.21;74.33;98248.00;4921092;28;19960;-74
2023/04/30 10:25:19;;;;;;;;;;;;;;;16.13;78.30;98246.75;4919899;28;19929;-75
2023/04/30 10:27:46;;;;;;;;;;;;;;;16.22;77.54;98254.97;4908256;28;19933;-74
2023/04/30 10:30:13;;;;;;;;;;;;;;;16.13;76.45;98249.44;4909017;28;20012;-75
2023/04/30 10:32:44;;;;;;;;;;;;;;;16.13;72.64;98246.75;4906163;28;20080;-76
2023/04/30 10:35:16;;;;;;;;;;;;;;;16.12;70.75;98244.38;4919896;28;20759;-74
2023/04/30 10:37:47;;;;;;;;;;;;;;;16.16;77.28;98239.97;4903933;28;19940;-76
2023/04/30 10:40:14;;;;;;;;;;;;;;;16.27;75.56;98235.25;4926721;28;19937;-75
2023/04/30 10:42:45;;;;;;;;;;;;;;;16.10;70.92;98233.84;4923487;28;19959;-75
2023/04/30 10:45:11;;;;;;;;;;;;;;;16.08;73.80;98237.94;4915468;28;19939;-77
2023/04/30 10:47:42;;;;;;;;;;;;;;;16.03;80.34;98232.63;4905977;28;20409;-76
2023/04/30 10:50:08;;;;;;;;;;;;;;;16.00;87.19;98234.00;4895175;28;20101;-75
2023/04/30 10:52:37;;;;;;;;;;;;;;;16.04;90.18;98231.53;4899037;28;20327;-75
2023/04/30 10:55:06;;;;;;;;;;;;;;;16.09;90.71;98231.47;4902922;28;20910;-75
2023/04/30 10:57:40;;;;;;;;;;;;;;;16.11;90.82;98235.47;4908159;28;20088;-77
2023/04/30 11:00:21;;;;;;;;;;;;;;;16.07;89.46;98237.13;4910102;28;20096;-75
2023/04/30 11:02:48;;;;;;;;;;;;;;;16.12;89.96;98226.28;4911381;28;20007;-76
2023/04/30 11:05:16;;;;;;;;;;;;;;;16.11;89.04;98230.09;4917465;28;19929;-77
2023/04/30 11:07:47;;;;;;;;;;;;;;;16.04;89.40;98226.94;4906505;28;20184;-76
2023/04/30 11:10:16;;;;;;;;;;;;;;;16.16;88.77;98224.63;4915192;28;19929;-75
2023/04/30 11:12:47;;;;;;;;;;;;;;;16.28;89.53;98221.47;4913925;28;20096;-75
2023/04/30 11:15:15;;;;;;;;;;;;;;;16.29;91.08;98217.69;4920669;28;20721;-74
2023/04/30 11:17:43;;;;;;;;;;;;;;;16.29;85.70;98212.31;4912380;28;20235;-75
2023/04/30 11:20:12;;;;;;;;;;;;;;;16.22;85.43;98219.94;4921298;28;19940;-75
2023/04/30 11:22:38;;;;;;;;;;;;;;;16.37;78.17;98208.16;4912204;28;20341;-76
2023/04/30 11:25:05;;;;;;;;;;;;;;;16.55;72.96;98204.66;4906182;28;20191;-81
2023/04/30 11:27:34;;;;;;;;;;;;;;;16.66;72.61;98206.91;4909295;28;20898;-79
2023/04/30 11:30:00;;;;;;;;;;;;;;;16.71;75.45;98204.09;4934711;28;19995;-77
2023/04/30 11:32:33;;;;;;;;;;;;;;;16.81;75.01;98195.06;4934124;28;19929;-77
2023/04/30 11:34:59;;;;;;;;;;;;;;;16.79;75.21;98191.84;4931560;28;20895;-80
2023/04/30 11:37:30;;;;;;;;;;;;;;;16.91;78.17;98192.19;4924955;28;20020;-75
2023/04/30 11:39:57;;;;;;;;;;;;;;;16.96;76.23;98199.41;4927483;28;19930;-77
2023/04/30 11:42:23;;;;;;;;;;;;;;;16.95;75.56;98201.28;4924932;28;19936;-77
2023/04/30 11:44:51;;;;;;;;;;;;;;;17.07;71.43;98184.63;4913110;28;19956;-75
2023/04/30 11:47:17;;;;;;;;;;;;;;;16.96;74.50;98188.59;4901105;28;19929;-76
2023/04/30 11:49:43;;;;;;;;;;;;;;;16.94;72.58;98193.47;4908139;28;19944;-77
2023/04/30 11:52:12;;;;;;;;;;;;;;;17.08;71.79;98188.94;4915412;28;20018;-76
2023/04/30 11:54:39;;;;;;;;;;;;;;;16.99;72.54;98188.78;4911031;28;20385;-74
2023/04/30 11:57:07;;;;;;;;;;;;;;;17.00;71.70;98181.50;4898099;28;22387;-76
2023/04/30 11:59:40;;;;;;;;;;;;;;;17.01;71.67;98181.22;4909028;28;19929;-77
2023/04/30 12:02:07;;;;;;;;;;;;;;;17.05;71.45;98190.28;4925307;28;20372;-77
2023/04/30 12:04:34;;;;;;;;;;;;;;;16.76;75.37;98189.75;4910824;28;20189;-77
2023/04/30 12:07:01;;;;;;;;;;;;;;;17.05;72.83;98192.22;4915826;28;19933;-77
2023/04/30 12:09:27;;;;;;;;;;;;;;;17.07;72.21;98185.41;4920239;28;19929;-78
2023/04/30 12:11:53;;;;;;;;;;;;;;;17.04;72.39;98185.22;4912822;28;19943;-77
2023/04/30 12:14:24;;;;;;;;;;;;;;;17.24;70.91;98176.72;4911869;28;19930;-77
2023/04/30 12:16:51;;;;;;;;;;;;;;;17.34;70.77;98176.53;4921635;28;19929;-77
2023/04/30 12:19:20;;;;;;;;;;;;;;;17.69;67.96;98181.25;4920541;28;19930;-78
2023/04/30 12:21:47;;;;;;;;;;;;;;;17.75;68.25;98173.84;4915897;28;19940;-76
2023/04/30 12:24:14;;;;;;;;;;;;;;;17.47;63.96;98166.84;4916640;28;20520;-75
2023/04/30 12:26:40;;;;;;;;;;;;;;;17.42;63.80;98165.06;4919460;28;20052;-77
2023/04/30 12:29:08;;;;;;;;;;;;;;;17.49;64.88;98162.72;4913850;28;19971;-76
2023/04/30 12:31:36;;;;;;;;;;;;;;;17.64;65.86;98153.56;4917872;28;19930;-78
2023/04/30 12:34:05;;;;;;;;;;;;;;;17.72;63.96;98164.44;4907436;28;19933;-74
2023/04/30 12:36:35;;;;;;;;;;;;;;;17.52;65.93;98169.41;4915643;28;20465;-75
2023/04/30 12:39:08;;;;;;;;;;;;;;;17.85;64.55;98160.13;4928804;28;20020;-75
2023/04/30 12:41:36;;;;;;;;;;;;;;;18.01;61.98;98161.34;4916105;28;19934;-74